Terminal Aerodrome Forecast
Issued by NWS Sterling, VA

Current Version | Previous Version | Graphics & Text | Print | Product List | Glossary On
Versions: 1 2 3 4 5 6 7 8 9 10 11 12 13 14 15 16 17 18 19 20 21 22 23
000
FTUS41 KLWX 251100
TAFDCA
TAF
KDCA 251132Z 2512/2612 25004KT P6SM SCT250
     FM251700 31005KT P6SM BKN250
     FM260200 04007KT P6SM OVC090
     FM260300 05007KT P6SM -SN OVC030
     FM260500 05007KT 3SM -SN OVC020
     FM260800 05011KT 2SM -SN OVC010=

USA.gov is the U.S. government's official web portal to all federal, state and local government web resources and services.